sensor_id;sensor_type;location;lat;lon;timestamp;P1;durP1;ratioP1;P2;durP2;ratioP2
47856;SDS011;33618;49.972;8.242;2022-08-19T00:03:09;14.38;;;11.40;;
47856;SDS011;33618;49.972;8.242;2022-08-19T00:05:37;13.82;;;10.68;;
47856;SDS011;33618;49.972;8.242;2022-08-19T00:15:16;14.90;;;11.02;;
47856;SDS011;33618;49.972;8.242;2022-08-19T00:17:45;15.52;;;11.80;;
47856;SDS011;33618;49.972;8.242;2022-08-19T00:31:05;14.75;;;11.85;;
47856;SDS011;33618;49.972;8.242;2022-08-19T00:33:33;13.10;;;11.45;;
47856;SDS011;33618;49.972;8.242;2022-08-19T00:36:02;15.52;;;12.32;;
47856;SDS011;33618;49.972;8.242;2022-08-19T00:38:33;15.10;;;11.93;;
47856;SDS011;33618;49.972;8.242;2022-08-19T00:41:04;16.33;;;12.23;;
47856;SDS011;33618;49.972;8.242;2022-08-19T00:43:32;14.27;;;12.23;;
47856;SDS011;33618;49.972;8.242;2022-08-19T00:45:59;16.17;;;12.48;;
47856;SDS011;33618;49.972;8.242;2022-08-19T00:48:31;14.13;;;11.60;;
47856;SDS011;33618;49.972;8.242;2022-08-19T00:58:31;14.60;;;12.20;;
47856;SDS011;33618;49.972;8.242;2022-08-19T01:00:59;15.15;;;12.57;;
47856;SDS011;33618;49.972;8.242;2022-08-19T01:06:50;14.68;;;11.45;;
47856;SDS011;33618;49.972;8.242;2022-08-19T01:12:40;16.25;;;11.77;;
47856;SDS011;33618;49.972;8.242;2022-08-19T01:15:09;14.63;;;12.05;;
47856;SDS011;33618;49.972;8.242;2022-08-19T01:21:40;13.95;;;11.35;;
47856;SDS011;33618;49.972;8.242;2022-08-19T01:27:41;16.02;;;11.60;;
47856;SDS011;33618;49.972;8.242;2022-08-19T01:30:15;13.38;;;11.60;;
47856;SDS011;33618;49.972;8.242;2022-08-19T01:40:11;13.48;;;11.68;;
47856;SDS011;33618;49.972;8.242;2022-08-19T01:42:38;15.30;;;11.45;;
47856;SDS011;33618;49.972;8.242;2022-08-19T01:49:12;13.27;;;11.60;;
47856;SDS011;33618;49.972;8.242;2022-08-19T01:51:39;14.80;;;11.48;;
47856;SDS011;33618;49.972;8.242;2022-08-19T01:54:07;16.40;;;11.95;;
47856;SDS011;33618;49.972;8.242;2022-08-19T01:59:58;13.00;;;10.93;;
47856;SDS011;33618;49.972;8.242;2022-08-19T02:02:26;14.10;;;12.25;;
47856;SDS011;33618;49.972;8.242;2022-08-19T02:08:16;12.73;;;11.25;;
47856;SDS011;33618;49.972;8.242;2022-08-19T02:10:43;14.77;;;11.73;;
47856;SDS011;33618;49.972;8.242;2022-08-19T02:16:34;13.15;;;11.77;;
47856;SDS011;33618;49.972;8.242;2022-08-19T02:22:25;13.65;;;11.73;;
47856;SDS011;33618;49.972;8.242;2022-08-19T02:24:52;15.27;;;11.63;;
47856;SDS011;33618;49.972;8.242;2022-08-19T02:30:44;12.60;;;11.05;;
47856;SDS011;33618;49.972;8.242;2022-08-19T02:33:12;12.40;;;10.60;;
47856;SDS011;33618;49.972;8.242;2022-08-19T02:39:08;11.93;;;10.32;;
47856;SDS011;33618;49.972;8.242;2022-08-19T02:41:35;12.45;;;10.48;;
47856;SDS011;33618;49.972;8.242;2022-08-19T02:44:03;11.50;;;10.30;;
47856;SDS011;33618;49.972;8.242;2022-08-19T02:46:50;12.10;;;10.90;;
47856;SDS011;33618;49.972;8.242;2022-08-19T02:56:48;12.65;;;10.25;;
47856;SDS011;33618;49.972;8.242;2022-08-19T02:59:16;13.23;;;10.30;;
47856;SDS011;33618;49.972;8.242;2022-08-19T03:05:11;11.80;;;9.40;;
47856;SDS011;33618;49.972;8.242;2022-08-19T03:07:39;9.90;;;8.75;;
47856;SDS011;33618;49.972;8.242;2022-08-19T03:13:29;10.52;;;9.15;;
47856;SDS011;33618;49.972;8.242;2022-08-19T03:19:20;10.95;;;9.60;;
47856;SDS011;33618;49.972;8.242;2022-08-19T03:21:47;13.43;;;10.43;;
47856;SDS011;33618;49.972;8.242;2022-08-19T03:28:11;10.68;;;9.57;;
47856;SDS011;33618;49.972;8.242;2022-08-19T03:34:14;11.23;;;9.90;;
47856;SDS011;33618;49.972;8.242;2022-08-19T03:36:44;11.25;;;9.65;;
47856;SDS011;33618;49.972;8.242;2022-08-19T03:43:30;11.57;;;8.90;;
47856;SDS011;33618;49.972;8.242;2022-08-19T03:46:04;10.43;;;9.13;;
47856;SDS011;33618;49.972;8.242;2022-08-19T03:56:02;12.65;;;9.73;;
47856;SDS011;33618;49.972;8.242;2022-08-19T03:58:29;11.90;;;8.82;;
47856;SDS011;33618;49.972;8.242;2022-08-19T04:04:22;10.60;;;9.45;;
47856;SDS011;33618;49.972;8.242;2022-08-19T04:06:50;10.75;;;9.27;;
47856;SDS011;33618;49.972;8.242;2022-08-19T04:12:41;13.75;;;10.38;;
47856;SDS011;33618;49.972;8.242;2022-08-19T04:15:08;11.50;;;10.27;;
47856;SDS011;33618;49.972;8.242;2022-08-19T04:21:01;11.00;;;9.55;;
47856;SDS011;33618;49.972;8.242;2022-08-19T04:26:52;11.73;;;9.77;;
47856;SDS011;33618;49.972;8.242;2022-08-19T04:29:21;10.63;;;9.15;;
47856;SDS011;33618;49.972;8.242;2022-08-19T04:35:15;12.68;;;10.00;;
47856;SDS011;33618;49.972;8.242;2022-08-19T04:37:47;12.07;;;10.10;;
47856;SDS011;33618;49.972;8.242;2022-08-19T04:43:38;11.73;;;9.68;;
47856;SDS011;33618;49.972;8.242;2022-08-19T04:46:06;10.65;;;9.55;;
47856;SDS011;33618;49.972;8.242;2022-08-19T04:51:58;10.18;;;9.25;;
47856;SDS011;33618;49.972;8.242;2022-08-19T04:54:25;11.10;;;9.50;;
47856;SDS011;33618;49.972;8.242;2022-08-19T05:00:27;12.02;;;9.52;;
47856;SDS011;33618;49.972;8.242;2022-08-19T05:02:54;12.10;;;9.48;;
47856;SDS011;33618;49.972;8.242;2022-08-19T05:08:44;10.38;;;9.38;;
47856;SDS011;33618;49.972;8.242;2022-08-19T05:14:35;10.10;;;8.85;;
47856;SDS011;33618;49.972;8.242;2022-08-19T05:17:02;10.10;;;8.52;;
47856;SDS011;33618;49.972;8.242;2022-08-19T05:23:31;10.35;;;9.20;;
47856;SDS011;33618;49.972;8.242;2022-08-19T05:25:58;11.13;;;9.60;;
47856;SDS011;33618;49.972;8.242;2022-08-19T05:31:48;11.00;;;9.90;;
47856;SDS011;33618;49.972;8.242;2022-08-19T05:34:16;11.88;;;9.68;;
47856;SDS011;33618;49.972;8.242;2022-08-19T05:40:09;10.68;;;8.75;;
47856;SDS011;33618;49.972;8.242;2022-08-19T05:42:36;15.45;;;9.13;;
47856;SDS011;33618;49.972;8.242;2022-08-19T05:52:34;11.73;;;9.55;;
47856;SDS011;33618;49.972;8.242;2022-08-19T06:02:34;9.82;;;8.82;;
47856;SDS011;33618;49.972;8.242;2022-08-19T06:05:02;10.18;;;9.18;;
47856;SDS011;33618;49.972;8.242;2022-08-19T06:15:09;10.02;;;9.02;;
47856;SDS011;33618;49.972;8.242;2022-08-19T06:17:39;10.30;;;9.30;;
47856;SDS011;33618;49.972;8.242;2022-08-19T06:27:12;12.52;;;9.85;;
47856;SDS011;33618;49.972;8.242;2022-08-19T06:29:39;12.02;;;10.60;;
47856;SDS011;33618;49.972;8.242;2022-08-19T06:35:30;10.68;;;9.15;;
47856;SDS011;33618;49.972;8.242;2022-08-19T06:37:57;11.43;;;10.15;;
47856;SDS011;33618;49.972;8.242;2022-08-19T06:43:49;9.93;;;8.88;;
47856;SDS011;33618;49.972;8.242;2022-08-19T06:46:19;11.38;;;9.82;;
47856;SDS011;33618;49.972;8.242;2022-08-19T06:52:10;9.65;;;8.68;;
47856;SDS011;33618;49.972;8.242;2022-08-19T06:54:42;10.10;;;8.25;;
47856;SDS011;33618;49.972;8.242;2022-08-19T07:00:45;10.15;;;9.05;;
47856;SDS011;33618;49.972;8.242;2022-08-19T07:03:12;9.52;;;8.63;;
47856;SDS011;33618;49.972;8.242;2022-08-19T07:09:10;11.38;;;8.45;;
47856;SDS011;33618;49.972;8.242;2022-08-19T07:15:07;7.93;;;7.28;;
47856;SDS011;33618;49.972;8.242;2022-08-19T07:17:36;11.75;;;7.63;;
47856;SDS011;33618;49.972;8.242;2022-08-19T07:20:42;8.77;;;7.88;;
47856;SDS011;33618;49.972;8.242;2022-08-19T07:23:09;9.52;;;7.30;;
47856;SDS011;33618;49.972;8.242;2022-08-19T07:29:07;7.50;;;6.78;;
47856;SDS011;33618;49.972;8.242;2022-08-19T07:31:35;8.80;;;6.13;;
47856;SDS011;33618;49.972;8.242;2022-08-19T07:37:27;8.82;;;6.63;;
47856;SDS011;33618;49.972;8.242;2022-08-19T07:44:25;6.95;;;6.25;;
47856;SDS011;33618;49.972;8.242;2022-08-19T07:46:53;7.05;;;5.90;;
47856;SDS011;33618;49.972;8.242;2022-08-19T07:56:45;7.80;;;6.25;;
47856;SDS011;33618;49.972;8.242;2022-08-19T07:59:12;7.93;;;6.00;;
47856;SDS011;33618;49.972;8.242;2022-08-19T08:01:39;6.60;;;5.65;;
47856;SDS011;33618;49.972;8.242;2022-08-19T08:04:07;7.20;;;6.50;;
47856;SDS011;33618;49.972;8.242;2022-08-19T08:10:16;8.25;;;7.45;;
47856;SDS011;33618;49.972;8.242;2022-08-19T08:20:17;6.47;;;5.88;;
47856;SDS011;33618;49.972;8.242;2022-08-19T08:30:10;9.30;;;8.23;;
47856;SDS011;33618;49.972;8.242;2022-08-19T08:32:43;7.97;;;6.85;;
47856;SDS011;33618;49.972;8.242;2022-08-19T08:35:12;10.50;;;9.40;;
47856;SDS011;33618;49.972;8.242;2022-08-19T08:42:39;12.27;;;10.48;;
47856;SDS011;33618;49.972;8.242;2022-08-19T08:45:14;13.27;;;10.45;;
47856;SDS011;33618;49.972;8.242;2022-08-19T08:47:45;11.85;;;9.48;;
47856;SDS011;33618;49.972;8.242;2022-08-19T08:50:27;9.68;;;8.05;;
47856;SDS011;33618;49.972;8.242;2022-08-19T08:53:02;12.13;;;9.63;;
47856;SDS011;33618;49.972;8.242;2022-08-19T08:55:31;11.75;;;9.43;;
47856;SDS011;33618;49.972;8.242;2022-08-19T08:58:20;9.02;;;8.10;;
47856;SDS011;33618;49.972;8.242;2022-08-19T09:00:53;9.98;;;8.80;;
47856;SDS011;33618;49.972;8.242;2022-08-19T09:03:24;8.90;;;8.10;;
47856;SDS011;33618;49.972;8.242;2022-08-19T09:08:32;8.32;;;7.63;;
47856;SDS011;33618;49.972;8.242;2022-08-19T09:11:25;8.55;;;7.82;;
47856;SDS011;33618;49.972;8.242;2022-08-19T09:17:18;10.50;;;8.82;;
47856;SDS011;33618;49.972;8.242;2022-08-19T09:20:03;7.18;;;6.57;;
47856;SDS011;33618;49.972;8.242;2022-08-19T09:22:35;7.00;;;6.40;;
47856;SDS011;33618;49.972;8.242;2022-08-19T09:28:27;7.43;;;6.72;;
47856;SDS011;33618;49.972;8.242;2022-08-19T09:30:57;6.93;;;6.40;;
47856;SDS011;33618;49.972;8.242;2022-08-19T09:33:24;6.75;;;5.97;;
47856;SDS011;33618;49.972;8.242;2022-08-19T09:36:01;6.95;;;6.22;;
47856;SDS011;33618;49.972;8.242;2022-08-19T09:38:34;7.38;;;6.47;;
47856;SDS011;33618;49.972;8.242;2022-08-19T09:41:17;8.00;;;6.90;;
47856;SDS011;33618;49.972;8.242;2022-08-19T09:43:46;11.98;;;7.53;;
47856;SDS011;33618;49.972;8.242;2022-08-19T09:46:18;8.60;;;7.90;;
47856;SDS011;33618;49.972;8.242;2022-08-19T09:48:49;9.60;;;8.60;;
47856;SDS011;33618;49.972;8.242;2022-08-19T09:51:18;11.07;;;10.02;;
47856;SDS011;33618;49.972;8.242;2022-08-19T09:53:49;10.93;;;9.93;;
47856;SDS011;33618;49.972;8.242;2022-08-19T09:56:18;9.63;;;8.38;;
47856;SDS011;33618;49.972;8.242;2022-08-19T09:58:46;8.93;;;8.00;;
47856;SDS011;33618;49.972;8.242;2022-08-19T10:01:17;8.15;;;7.40;;
47856;SDS011;33618;49.972;8.242;2022-08-19T10:03:50;8.80;;;8.00;;
47856;SDS011;33618;49.972;8.242;2022-08-19T10:06:21;7.65;;;6.90;;
47856;SDS011;33618;49.972;8.242;2022-08-19T10:09:09;6.72;;;6.25;;
47856;SDS011;33618;49.972;8.242;2022-08-19T10:11:39;7.40;;;6.80;;
47856;SDS011;33618;49.972;8.242;2022-08-19T10:14:19;10.63;;;6.57;;
47856;SDS011;33618;49.972;8.242;2022-08-19T10:16:49;6.97;;;6.38;;
47856;SDS011;33618;49.972;8.242;2022-08-19T10:19:16;6.88;;;6.22;;
47856;SDS011;33618;49.972;8.242;2022-08-19T10:21:52;7.55;;;6.97;;
47856;SDS011;33618;49.972;8.242;2022-08-19T10:24:25;6.90;;;6.40;;
47856;SDS011;33618;49.972;8.242;2022-08-19T10:26:54;6.97;;;6.28;;
47856;SDS011;33618;49.972;8.242;2022-08-19T10:29:25;6.75;;;6.15;;
47856;SDS011;33618;49.972;8.242;2022-08-19T10:31:58;6.18;;;5.78;;
47856;SDS011;33618;49.972;8.242;2022-08-19T10:34:36;5.47;;;4.97;;
47856;SDS011;33618;49.972;8.242;2022-08-19T10:37:14;5.72;;;5.22;;
47856;SDS011;33618;49.972;8.242;2022-08-19T10:39:56;7.03;;;5.57;;
47856;SDS011;33618;49.972;8.242;2022-08-19T10:42:23;5.22;;;4.85;;
47856;SDS011;33618;49.972;8.242;2022-08-19T10:44:51;5.45;;;4.95;;
47856;SDS011;33618;49.972;8.242;2022-08-19T10:47:18;5.47;;;4.90;;
47856;SDS011;33618;49.972;8.242;2022-08-19T10:49:52;5.20;;;4.63;;
47856;SDS011;33618;49.972;8.242;2022-08-19T10:52:40;5.78;;;4.65;;
47856;SDS011;33618;49.972;8.242;2022-08-19T10:55:16;4.72;;;4.38;;
47856;SDS011;33618;49.972;8.242;2022-08-19T10:58:23;4.82;;;4.40;;
47856;SDS011;33618;49.972;8.242;2022-08-19T11:00:53;4.95;;;4.63;;
47856;SDS011;33618;49.972;8.242;2022-08-19T11:03:22;4.93;;;4.53;;
47856;SDS011;33618;49.972;8.242;2022-08-19T11:05:59;5.70;;;4.72;;
47856;SDS011;33618;49.972;8.242;2022-08-19T11:08:28;4.60;;;4.30;;
47856;SDS011;33618;49.972;8.242;2022-08-19T11:10:58;5.45;;;5.00;;
47856;SDS011;33618;49.972;8.242;2022-08-19T11:13:27;4.65;;;4.30;;
47856;SDS011;33618;49.972;8.242;2022-08-19T11:15:56;5.00;;;4.53;;
47856;SDS011;33618;49.972;8.242;2022-08-19T11:18:33;4.60;;;4.28;;
47856;SDS011;33618;49.972;8.242;2022-08-19T11:21:08;4.97;;;4.57;;
47856;SDS011;33618;49.972;8.242;2022-08-19T11:23:37;7.28;;;4.63;;
47856;SDS011;33618;49.972;8.242;2022-08-19T11:29:27;5.30;;;4.50;;
47856;SDS011;33618;49.972;8.242;2022-08-19T11:31:55;5.03;;;4.30;;
47856;SDS011;33618;49.972;8.242;2022-08-19T11:34:22;4.70;;;4.40;;
47856;SDS011;33618;49.972;8.242;2022-08-19T11:36:54;4.90;;;4.50;;
47856;SDS011;33618;49.972;8.242;2022-08-19T11:39:25;4.60;;;4.20;;
47856;SDS011;33618;49.972;8.242;2022-08-19T11:41:53;4.68;;;4.20;;
47856;SDS011;33618;49.972;8.242;2022-08-19T11:44:21;5.88;;;4.30;;
47856;SDS011;33618;49.972;8.242;2022-08-19T11:46:48;6.88;;;4.35;;
47856;SDS011;33618;49.972;8.242;2022-08-19T11:49:15;4.90;;;4.25;;
47856;SDS011;33618;49.972;8.242;2022-08-19T11:51:45;5.40;;;4.75;;
47856;SDS011;33618;49.972;8.242;2022-08-19T11:54:13;4.65;;;4.35;;
47856;SDS011;33618;49.972;8.242;2022-08-19T11:56:42;6.32;;;4.60;;
47856;SDS011;33618;49.972;8.242;2022-08-19T11:59:12;5.13;;;4.82;;
47856;SDS011;33618;49.972;8.242;2022-08-19T12:01:40;9.70;;;5.13;;
47856;SDS011;33618;49.972;8.242;2022-08-19T12:04:09;5.38;;;4.80;;
47856;SDS011;33618;49.972;8.242;2022-08-19T12:06:37;5.50;;;5.10;;
47856;SDS011;33618;49.972;8.242;2022-08-19T12:09:06;5.40;;;5.00;;
47856;SDS011;33618;49.972;8.242;2022-08-19T12:11:36;5.10;;;4.78;;
47856;SDS011;33618;49.972;8.242;2022-08-19T12:14:04;5.25;;;4.85;;
47856;SDS011;33618;49.972;8.242;2022-08-19T12:16:32;5.50;;;5.00;;
47856;SDS011;33618;49.972;8.242;2022-08-19T12:19:04;5.20;;;4.80;;
47856;SDS011;33618;49.972;8.242;2022-08-19T12:21:34;6.40;;;5.13;;
47856;SDS011;33618;49.972;8.242;2022-08-19T12:24:02;5.22;;;4.82;;
47856;SDS011;33618;49.972;8.242;2022-08-19T12:30:07;4.45;;;4.15;;
47856;SDS011;33618;49.972;8.242;2022-08-19T12:32:36;4.72;;;4.43;;
47856;SDS011;33618;49.972;8.242;2022-08-19T12:35:04;5.28;;;4.88;;
47856;SDS011;33618;49.972;8.242;2022-08-19T12:37:32;5.50;;;5.10;;
47856;SDS011;33618;49.972;8.242;2022-08-19T12:39:59;5.05;;;4.55;;
47856;SDS011;33618;49.972;8.242;2022-08-19T12:42:27;5.28;;;4.88;;
47856;SDS011;33618;49.972;8.242;2022-08-19T12:44:53;5.07;;;4.68;;
47856;SDS011;33618;49.972;8.242;2022-08-19T12:47:21;5.07;;;4.60;;
47856;SDS011;33618;49.972;8.242;2022-08-19T12:49:48;5.40;;;5.10;;
47856;SDS011;33618;49.972;8.242;2022-08-19T12:52:20;5.18;;;4.68;;
47856;SDS011;33618;49.972;8.242;2022-08-19T12:54:54;5.40;;;4.90;;
47856;SDS011;33618;49.972;8.242;2022-08-19T12:57:23;5.00;;;4.57;;
47856;SDS011;33618;49.972;8.242;2022-08-19T12:59:59;5.25;;;4.13;;
47856;SDS011;33618;49.972;8.242;2022-08-19T13:02:30;32.13;;;10.63;;
47856;SDS011;33618;49.972;8.242;2022-08-19T13:05:04;21.92;;;5.10;;
47856;SDS011;33618;49.972;8.242;2022-08-19T13:07:34;7.68;;;4.03;;
47856;SDS011;33618;49.972;8.242;2022-08-19T13:10:03;5.10;;;4.35;;
47856;SDS011;33618;49.972;8.242;2022-08-19T13:12:31;3.95;;;3.60;;
47856;SDS011;33618;49.972;8.242;2022-08-19T13:14:58;4.30;;;3.92;;
47856;SDS011;33618;49.972;8.242;2022-08-19T13:17:25;4.35;;;4.00;;
47856;SDS011;33618;49.972;8.242;2022-08-19T13:19:53;4.45;;;4.05;;
47856;SDS011;33618;49.972;8.242;2022-08-19T13:22:20;5.72;;;5.07;;
47856;SDS011;33618;49.972;8.242;2022-08-19T13:24:47;4.75;;;4.22;;
47856;SDS011;33618;49.972;8.242;2022-08-19T13:30:41;5.10;;;4.30;;
47856;SDS011;33618;49.972;8.242;2022-08-19T13:33:31;4.93;;;4.50;;
47856;SDS011;33618;49.972;8.242;2022-08-19T13:36:00;3.60;;;3.40;;
47856;SDS011;33618;49.972;8.242;2022-08-19T13:38:27;4.30;;;3.85;;
47856;SDS011;33618;49.972;8.242;2022-08-19T13:40:57;4.47;;;4.13;;
47856;SDS011;33618;49.972;8.242;2022-08-19T13:43:37;3.20;;;3.00;;
47856;SDS011;33618;49.972;8.242;2022-08-19T13:46:08;4.43;;;3.40;;
47856;SDS011;33618;49.972;8.242;2022-08-19T13:48:36;3.97;;;3.30;;
47856;SDS011;33618;49.972;8.242;2022-08-19T13:51:04;4.10;;;3.75;;
47856;SDS011;33618;49.972;8.242;2022-08-19T13:53:31;3.45;;;3.20;;
47856;SDS011;33618;49.972;8.242;2022-08-19T13:55:58;3.75;;;3.45;;
47856;SDS011;33618;49.972;8.242;2022-08-19T13:58:25;4.00;;;3.10;;
47856;SDS011;33618;49.972;8.242;2022-08-19T14:00:52;3.58;;;2.83;;
47856;SDS011;33618;49.972;8.242;2022-08-19T14:03:19;3.13;;;2.75;;
47856;SDS011;33618;49.972;8.242;2022-08-19T14:05:46;2.92;;;2.72;;
47856;SDS011;33618;49.972;8.242;2022-08-19T14:08:13;4.45;;;2.40;;
47856;SDS011;33618;49.972;8.242;2022-08-19T14:10:40;2.40;;;2.22;;
47856;SDS011;33618;49.972;8.242;2022-08-19T14:13:08;2.67;;;2.47;;
47856;SDS011;33618;49.972;8.242;2022-08-19T14:15:36;4.50;;;2.85;;
47856;SDS011;33618;49.972;8.242;2022-08-19T14:18:04;3.42;;;3.13;;
47856;SDS011;33618;49.972;8.242;2022-08-19T14:20:33;4.30;;;2.80;;
47856;SDS011;33618;49.972;8.242;2022-08-19T14:23:01;3.47;;;3.28;;
47856;SDS011;33618;49.972;8.242;2022-08-19T14:25:29;4.10;;;3.10;;
47856;SDS011;33618;49.972;8.242;2022-08-19T14:27:57;3.33;;;3.10;;
47856;SDS011;33618;49.972;8.242;2022-08-19T14:30:26;3.75;;;3.42;;
47856;SDS011;33618;49.972;8.242;2022-08-19T14:32:59;3.08;;;2.88;;
47856;SDS011;33618;49.972;8.242;2022-08-19T14:38:50;3.45;;;3.15;;
47856;SDS011;33618;49.972;8.242;2022-08-19T14:41:22;3.22;;;3.03;;
47856;SDS011;33618;49.972;8.242;2022-08-19T14:43:50;3.30;;;3.10;;
47856;SDS011;33618;49.972;8.242;2022-08-19T14:46:19;3.75;;;3.35;;
47856;SDS011;33618;49.972;8.242;2022-08-19T14:48:48;3.88;;;3.42;;
47856;SDS011;33618;49.972;8.242;2022-08-19T14:51:18;4.10;;;3.65;;
47856;SDS011;33618;49.972;8.242;2022-08-19T14:53:46;4.65;;;3.55;;
47856;SDS011;33618;49.972;8.242;2022-08-19T14:56:18;3.78;;;3.47;;
47856;SDS011;33618;49.972;8.242;2022-08-19T14:58:47;4.10;;;3.70;;
47856;SDS011;33618;49.972;8.242;2022-08-19T15:01:18;3.55;;;3.30;;
47856;SDS011;33618;49.972;8.242;2022-08-19T15:03:47;4.00;;;3.60;;
47856;SDS011;33618;49.972;8.242;2022-08-19T15:06:15;3.83;;;3.40;;
47856;SDS011;33618;49.972;8.242;2022-08-19T15:08:42;3.78;;;3.42;;
47856;SDS011;33618;49.972;8.242;2022-08-19T15:11:12;3.55;;;3.35;;
47856;SDS011;33618;49.972;8.242;2022-08-19T15:13:42;3.80;;;3.50;;
47856;SDS011;33618;49.972;8.242;2022-08-19T15:16:10;3.55;;;3.35;;
47856;SDS011;33618;49.972;8.242;2022-08-19T15:18:43;3.53;;;3.33;;
47856;SDS011;33618;49.972;8.242;2022-08-19T15:21:12;3.38;;;3.17;;
47856;SDS011;33618;49.972;8.242;2022-08-19T15:23:52;3.83;;;3.53;;
47856;SDS011;33618;49.972;8.242;2022-08-19T15:26:20;3.70;;;3.50;;
47856;SDS011;33618;49.972;8.242;2022-08-19T15:28:47;3.75;;;3.50;;
47856;SDS011;33618;49.972;8.242;2022-08-19T15:31:16;3.80;;;3.50;;
47856;SDS011;33618;49.972;8.242;2022-08-19T15:33:54;3.60;;;3.40;;
47856;SDS011;33618;49.972;8.242;2022-08-19T15:39:47;3.90;;;3.60;;
47856;SDS011;33618;49.972;8.242;2022-08-19T15:42:14;3.85;;;3.55;;
47856;SDS011;33618;49.972;8.242;2022-08-19T15:44:54;3.60;;;3.40;;
47856;SDS011;33618;49.972;8.242;2022-08-19T15:47:30;3.90;;;3.60;;
47856;SDS011;33618;49.972;8.242;2022-08-19T15:50:17;3.95;;;3.65;;
47856;SDS011;33618;49.972;8.242;2022-08-19T15:52:50;4.10;;;3.70;;
47856;SDS011;33618;49.972;8.242;2022-08-19T15:55:21;3.97;;;3.67;;
47856;SDS011;33618;49.972;8.242;2022-08-19T15:58:06;3.97;;;3.67;;
47856;SDS011;33618;49.972;8.242;2022-08-19T16:01:03;4.07;;;3.78;;
47856;SDS011;33618;49.972;8.242;2022-08-19T16:03:53;4.15;;;3.85;;
47856;SDS011;33618;49.972;8.242;2022-08-19T16:06:45;4.25;;;3.85;;
47856;SDS011;33618;49.972;8.242;2022-08-19T16:09:14;4.45;;;4.13;;
47856;SDS011;33618;49.972;8.242;2022-08-19T16:11:42;5.00;;;4.03;;
47856;SDS011;33618;49.972;8.242;2022-08-19T16:14:15;4.32;;;4.03;;
47856;SDS011;33618;49.972;8.242;2022-08-19T16:16:44;4.90;;;4.57;;
47856;SDS011;33618;49.972;8.242;2022-08-19T16:19:13;5.28;;;4.85;;
47856;SDS011;33618;49.972;8.242;2022-08-19T16:21:42;4.63;;;4.10;;
47856;SDS011;33618;49.972;8.242;2022-08-19T16:24:12;4.63;;;4.22;;
47856;SDS011;33618;49.972;8.242;2022-08-19T16:26:41;4.78;;;4.30;;
47856;SDS011;33618;49.972;8.242;2022-08-19T16:29:09;4.57;;;4.18;;
47856;SDS011;33618;49.972;8.242;2022-08-19T16:31:39;4.18;;;3.88;;
47856;SDS011;33618;49.972;8.242;2022-08-19T16:34:07;4.50;;;4.20;;
47856;SDS011;33618;49.972;8.242;2022-08-19T16:36:34;5.60;;;4.20;;
47856;SDS011;33618;49.972;8.242;2022-08-19T16:46:26;4.53;;;4.22;;
47856;SDS011;33618;49.972;8.242;2022-08-19T16:48:53;5.53;;;4.88;;
47856;SDS011;33618;49.972;8.242;2022-08-19T16:51:20;4.30;;;4.00;;
47856;SDS011;33618;49.972;8.242;2022-08-19T16:53:48;4.32;;;3.92;;
47856;SDS011;33618;49.972;8.242;2022-08-19T16:56:18;4.47;;;4.07;;
47856;SDS011;33618;49.972;8.242;2022-08-19T16:58:46;4.30;;;4.00;;
47856;SDS011;33618;49.972;8.242;2022-08-19T17:01:13;5.05;;;4.25;;
47856;SDS011;33618;49.972;8.242;2022-08-19T17:03:40;5.30;;;4.00;;
47856;SDS011;33618;49.972;8.242;2022-08-19T17:06:11;4.20;;;3.85;;
47856;SDS011;33618;49.972;8.242;2022-08-19T17:08:46;5.78;;;4.13;;
47856;SDS011;33618;49.972;8.242;2022-08-19T17:11:15;4.47;;;4.13;;
47856;SDS011;33618;49.972;8.242;2022-08-19T17:13:44;4.07;;;3.80;;
47856;SDS011;33618;49.972;8.242;2022-08-19T17:16:20;4.43;;;4.13;;
47856;SDS011;33618;49.972;8.242;2022-08-19T17:18:51;3.92;;;3.63;;
47856;SDS011;33618;49.972;8.242;2022-08-19T17:21:25;4.38;;;4.07;;
47856;SDS011;33618;49.972;8.242;2022-08-19T17:23:55;5.68;;;4.10;;
47856;SDS011;33618;49.972;8.242;2022-08-19T17:26:22;5.70;;;4.32;;
47856;SDS011;33618;49.972;8.242;2022-08-19T17:28:51;4.68;;;3.85;;
47856;SDS011;33618;49.972;8.242;2022-08-19T17:31:25;14.43;;;4.35;;
47856;SDS011;33618;49.972;8.242;2022-08-19T17:33:58;4.20;;;3.90;;
47856;SDS011;33618;49.972;8.242;2022-08-19T17:36:30;4.63;;;4.32;;
47856;SDS011;33618;49.972;8.242;2022-08-19T17:42:23;4.60;;;4.22;;
47856;SDS011;33618;49.972;8.242;2022-08-19T17:45:01;6.75;;;4.35;;
47856;SDS011;33618;49.972;8.242;2022-08-19T17:47:33;4.60;;;4.20;;
47856;SDS011;33618;49.972;8.242;2022-08-19T17:50:02;4.70;;;4.40;;
47856;SDS011;33618;49.972;8.242;2022-08-19T17:52:32;4.50;;;4.10;;
47856;SDS011;33618;49.972;8.242;2022-08-19T17:54:59;4.30;;;4.00;;
47856;SDS011;33618;49.972;8.242;2022-08-19T17:57:27;5.35;;;4.35;;
47856;SDS011;33618;49.972;8.242;2022-08-19T17:59:53;4.60;;;4.30;;
47856;SDS011;33618;49.972;8.242;2022-08-19T18:02:22;5.88;;;4.68;;
47856;SDS011;33618;49.972;8.242;2022-08-19T18:04:50;4.65;;;4.25;;
47856;SDS011;33618;49.972;8.242;2022-08-19T18:07:17;5.07;;;4.57;;
47856;SDS011;33618;49.972;8.242;2022-08-19T18:09:47;4.78;;;4.38;;
47856;SDS011;33618;49.972;8.242;2022-08-19T18:12:22;4.55;;;4.20;;
47856;SDS011;33618;49.972;8.242;2022-08-19T18:14:49;5.53;;;4.60;;
47856;SDS011;33618;49.972;8.242;2022-08-19T18:17:16;5.15;;;4.65;;
47856;SDS011;33618;49.972;8.242;2022-08-19T18:19:45;6.55;;;4.88;;
47856;SDS011;33618;49.972;8.242;2022-08-19T18:22:23;4.63;;;4.25;;
47856;SDS011;33618;49.972;8.242;2022-08-19T18:24:52;5.75;;;4.78;;
47856;SDS011;33618;49.972;8.242;2022-08-19T18:27:20;5.30;;;4.80;;
47856;SDS011;33618;49.972;8.242;2022-08-19T18:29:47;5.38;;;4.85;;
47856;SDS011;33618;49.972;8.242;2022-08-19T18:32:15;7.85;;;4.78;;
47856;SDS011;33618;49.972;8.242;2022-08-19T18:34:49;5.55;;;5.15;;
47856;SDS011;33618;49.972;8.242;2022-08-19T18:37:16;5.72;;;5.20;;
47856;SDS011;33618;49.972;8.242;2022-08-19T18:47:08;6.57;;;5.18;;
47856;SDS011;33618;49.972;8.242;2022-08-19T18:49:53;5.60;;;5.10;;
47856;SDS011;33618;49.972;8.242;2022-08-19T18:52:20;5.85;;;5.35;;
47856;SDS011;33618;49.972;8.242;2022-08-19T18:54:52;5.90;;;5.32;;
47856;SDS011;33618;49.972;8.242;2022-08-19T18:57:19;5.43;;;5.03;;
47856;SDS011;33618;49.972;8.242;2022-08-19T18:59:51;5.25;;;4.78;;
47856;SDS011;33618;49.972;8.242;2022-08-19T19:02:22;5.47;;;4.97;;
47856;SDS011;33618;49.972;8.242;2022-08-19T19:04:49;5.30;;;4.80;;
47856;SDS011;33618;49.972;8.242;2022-08-19T19:07:16;5.80;;;5.22;;
47856;SDS011;33618;49.972;8.242;2022-08-19T19:09:44;5.65;;;4.97;;
47856;SDS011;33618;49.972;8.242;2022-08-19T19:12:15;7.93;;;5.55;;
47856;SDS011;33618;49.972;8.242;2022-08-19T19:14:43;6.40;;;5.80;;
47856;SDS011;33618;49.972;8.242;2022-08-19T19:17:15;7.68;;;5.03;;
47856;SDS011;33618;49.972;8.242;2022-08-19T19:19:42;6.30;;;5.70;;
47856;SDS011;33618;49.972;8.242;2022-08-19T19:22:10;6.15;;;5.63;;
47856;SDS011;33618;49.972;8.242;2022-08-19T19:24:40;6.53;;;5.70;;
47856;SDS011;33618;49.972;8.242;2022-08-19T19:27:10;5.78;;;5.18;;
47856;SDS011;33618;49.972;8.242;2022-08-19T19:29:39;5.88;;;5.38;;
47856;SDS011;33618;49.972;8.242;2022-08-19T19:32:15;6.82;;;6.00;;
47856;SDS011;33618;49.972;8.242;2022-08-19T19:34:44;7.47;;;6.25;;
47856;SDS011;33618;49.972;8.242;2022-08-19T19:37:12;6.43;;;5.72;;
47856;SDS011;33618;49.972;8.242;2022-08-19T19:43:02;6.45;;;5.85;;
47856;SDS011;33618;49.972;8.242;2022-08-19T19:45:31;7.40;;;5.32;;
47856;SDS011;33618;49.972;8.242;2022-08-19T19:47:58;6.50;;;5.28;;
47856;SDS011;33618;49.972;8.242;2022-08-19T19:50:26;6.03;;;5.53;;
47856;SDS011;33618;49.972;8.242;2022-08-19T19:52:56;5.70;;;5.20;;
47856;SDS011;33618;49.972;8.242;2022-08-19T19:55:23;5.68;;;5.18;;
47856;SDS011;33618;49.972;8.242;2022-08-19T19:57:52;6.07;;;4.85;;